Gryttjom Airport


Codes: ESKG/
Name: Gryttjom Airport
City: Gryttjom
Country: Sweden
Elevation: 0 ft.

Photos at Gryttjom Airport


   Photos courtesy of SpottingLog. You can add your own sightings and photos by signing up for a free trial today.



No photos found.

Weather at Gryttjom Airport


Time (UTC)DescriptionTempratureWindCloud coverageVisibilityPressureHumidity
16-Jun-2024 03:00Light Rain13°C7 mph, S100%10000m1009hPa85%
16-Jun-2024 06:00Light Rain14°C7 mph, S97%10000m1010hPa82%
16-Jun-2024 09:00Broken Clouds19°C7 mph, S81%10000m1010hPa49%
16-Jun-2024 12:00Overcast Clouds22°C7 mph, SW88%10000m1010hPa35%
16-Jun-2024 15:00Broken Clouds23°C4 mph, SW68%10000m1010hPa31%
16-Jun-2024 18:00Broken Clouds19°C2 mph, SW71%10000m1011hPa52%
16-Jun-2024 21:00Overcast Clouds15°C4 mph, S86%10000m1013hPa71%
17-Jun-2024 00:00Overcast Clouds11°C4 mph, S86%10000m1013hPa88%
17-Jun-2024 03:00Overcast Clouds11°C2 mph, S98%10000m1013hPa82%
17-Jun-2024 06:00Overcast Clouds17°C4 mph, SE85%10000m1013hPa53%
17-Jun-2024 09:00Overcast Clouds21°C4 mph, S88%10000m1012hPa38%
17-Jun-2024 12:00Overcast Clouds23°C7 mph, S94%10000m1011hPa31%
17-Jun-2024 15:00Overcast Clouds17°C7 mph, W100%10000m1012hPa62%
17-Jun-2024 18:00Light Rain18°C2 mph, W93%10000m1011hPa67%
17-Jun-2024 21:00Light Rain13°C2 mph, E99%10000m1011hPa92%
18-Jun-2024 00:00Light Rain11°C2 mph, W81%10000m1011hPa97%
18-Jun-2024 03:00Few Clouds11°C2 mph, W18%10000m1010hPa97%
18-Jun-2024 06:00Scattered Clouds16°C2 mph, SW43%10000m1010hPa81%
18-Jun-2024 09:00Light Rain20°C4 mph, SW60%10000m1009hPa55%
18-Jun-2024 12:00Light Rain21°C11 mph, SW70%10000m1007hPa45%
18-Jun-2024 15:00Light Rain21°C11 mph, SW50%10000m1006hPa40%
18-Jun-2024 18:00Light Rain18°C7 mph, SW52%10000m1005hPa53%
18-Jun-2024 21:00Scattered Clouds12°C4 mph, SW44%10000m1005hPa78%
19-Jun-2024 00:00Broken Clouds9°C4 mph, SW62%10000m1004hPa97%
19-Jun-2024 03:00Scattered Clouds10°C4 mph, SW40%10000m1003hPa98%
19-Jun-2024 06:00Broken Clouds14°C7 mph, SW63%10000m1002hPa69%
19-Jun-2024 09:00Light Rain15°C7 mph, NW85%7787m1003hPa85%
19-Jun-2024 12:00Light Rain14°C9 mph, NW91%10000m1004hPa85%
19-Jun-2024 15:00Light Rain13°C7 mph, NW100%10000m1007hPa76%
19-Jun-2024 18:00Overcast Clouds17°C7 mph, W85%10000m1006hPa51%
19-Jun-2024 21:00Broken Clouds12°C4 mph, W81%10000m1007hPa64%
20-Jun-2024 00:00Overcast Clouds10°C4 mph, SW90%10000m1006hPa68%
20-Jun-2024 03:00Overcast Clouds13°C9 mph, SW100%10000m1003hPa70%
20-Jun-2024 06:00Overcast Clouds14°C11 mph, SW99%10000m1002hPa66%
20-Jun-2024 09:00Clear Sky21°C11 mph, W4%10000m1000hPa35%
20-Jun-2024 12:00Clear Sky23°C11 mph, W3%10000m999hPa27%
20-Jun-2024 15:00Scattered Clouds23°C9 mph, W37%10000m997hPa31%
20-Jun-2024 18:00Broken Clouds12°C13 mph, N57%10000m1002hPa83%
20-Jun-2024 21:00Broken Clouds7°C4 mph, NW55%10000m1004hPa97%
21-Jun-2024 00:00Scattered Clouds7°C4 mph, W31%10000m1005hPa95%